Terminal Aerodrome Forecast
Issued by NWS Wilmington, NC

Home | Current Version | Previous Version | Text Only | Print | Product List | Glossary On
Versions: 1 2 3 4 5 6 7 8 9 10 11 12 13 14 15 16 17 18 19 20 21 22 23 24
561
FTUS42 KILM 291731
TAFLBT
TAF
KLBT 291731Z 2918/3018 01010KT P6SM SCT040
     FM292300 VRB02KT P6SM FEW050 SCT250
     FM300800 VRB02KT 4SM BR SCT250
     FM301000 09003KT 2SM BR OVC001
     FM301400 09004KT P6SM OVC004
     FM301500 08004KT P6SM SCT010 BKN250=

USA.gov is the U.S. government's official web portal to all federal, state and local government web resources and services.